AirNav   Everest Fuels
 
 1008 users online  

CO34 St Lukes Hospital Heliport
Denver, Colorado, USA

GOING TO DENVER?


FAA INFORMATION EFFECTIVE 08 SEPTEMBER 2022

Location

FAA Identifier: CO34
Lat/Long: 39-44-51.8900N 104-58-03.3900W
39-44.864833N 104-58.056500W
39.7477472,-104.9676083
(estimated)
Elevation: 5330 ft. / 1625 m (estimated)
Variation: 11E (1985)
Time zone: UTC -6 (UTC -7 during Standard Time)
Zip code: 80203

Heliport Operations

Heliport use: Private use, MEDICAL USE.
Activation date: 06/1971
Control tower: no
ARTCC: DENVER CENTER
FSS: DENVER FLIGHT SERVICE STATION
Attendance: CONTINUOUS
Wind indicator: yes
Segmented circle: no
Lights: FOR PERIMETER LGTS CALL 303-869-2111.

Heliport Communications

WX AWOS-3 at BJC (12 nm NW): PHONE 720-887-8067
WX ASOS at APA (12 nm SE): PHONE 720-873-2799
WX ASOS at DEN (15 nm NE): PHONE 303-342-1920
WX AWOS-3 at EIK (16 nm N): 133.825 (303-604-4339)
WX AWOS-3 at CFO (20 nm E): 119.025 (303-261-9104)

Nearby radio navigation aids

VOR radial/distance  VOR name  Freq  Var
BJCr130/12.7JEFFCO VOR/DME115.4011E
DENr247/14.7DENVER VOR/DME117.9008E
FQFr271/16.4FALCON VORTAC116.3011E
DVVr233/18.1MILE HIGH VORTAC114.7008E

Heliport Services

Airframe service: NONE
Powerplant service: NONE

Runway Information

Helipad H1

Dimensions: 32 x 28 ft. / 10 x 9 m
Surface: concrete, in good condition
Runway edge lights: PERI
Latitude: 39-44.864833N
Longitude: 104-58.056500W
Elevation: 5330.0 ft.
Traffic pattern: leftleft
Obstructions: 20 ft. bldg, marked and lighted, 100 ft. from runway
25' UNLGTD STACK 200' FROM PAD; 13' PENTHOUSE-L 200' NW OF PAD; 6' PENTHOUSE UNLGTD 265' SE OF PAD; 26-STORY HIGHRISE BLDG N OF PAD.

Heliport Ownership and Management from official FAA records

Ownership: Privately-owned
Owner: CENTENNIAL MEDICAL PLAZA ER
14200 E. ARAPHOE ROAD
ENGLEWOOD, CO 80112
Phone 303-699-3055
Manager: JAMES C. MC SHANE
14200 E. ARAPHOE ROAD
ENGLEWOOD, CO 80112
Phone 303-699-3055

Additional Remarks

FOR CD CTC DENVER APCH AT 303-342-1916.

Instrument Procedures

There are no published instrument procedures at CO34.

Some nearby airports with instrument procedures:

KBKF - Buckley Space Force Base (10 nm E)
KBJC - Rocky Mountain Metro Airport (12 nm NW)
KAPA - Centennial Airport (12 nm SE)
KDEN - Denver International Airport (15 nm NE)
KEIK - Erie Municipal Airport (16 nm N)
KCFO - Colorado Air and Space Port Airport (20 nm E)
 
Loc | Ops | Rwys | IFR | FBO | Links
Com | Nav | Svcs | Stats | Notes

AirBoss

 
Area around CO34 (St Lukes Hospital Heliport)
 
Road maps at: MapQuest Bing Google
 
Aerial photo
No photo
 
Sectional chart

 
Airport distance calculator
Flying to St Lukes Hospital Heliport? Find the distance to fly.

From to CO34

Sunrise and sunset
Times for 24-Sep-2022
 Local
(UTC-6)
 Zulu
(UTC)
Morning civil twilight06:2312:23
Sunrise06:5012:50
Sunset18:5300:53
Evening civil twilight19:2001:20

Current date and time
Zulu (UTC)  25-Sep-2022 00:15:13
Local (UTC-6)  24-Sep-2022 18:15:13
 
METAR
KBKF 
10nm E 
242358Z 06010KT 10SM CLR 25/M03 A3021 RMK AO2A SLP171 T02521033 10277 20234 53003
KAPA 
12nm SE 
242353Z 03004KT 10SM CLR 25/M04 A3021 RMK AO2 SLP179 T02501044 10267 20228 53002
KBJC 
12nm NW 
242348Z 04007KT 10SM SKC 26/M03 A3021
KDEN 
16nm E 
242353Z 04009KT 10SM CLR 26/M04 A3018 RMK AO2 SLP156 T02561039 10278 20244 53002
KEIK 
16nm N 
242355Z AUTO 09006KT 10SM CLR 27/M05 A3017 RMK AO2 T02651050 10279 20240 PWINO
KCFO 
20nm E 
242347Z 03010KT 10SM SKC 27/M07 A3021
TAF
KBKF 
10nm E 
241700Z 2417/2523 VRB06KT 9999 SKC 510023 QNH3021INS TX24/2422Z TN07/2512Z
KAPA 
12nm SE 
241740Z 2418/2518 VRB05KT P6SM FEW100 FEW220 FM242200 08006KT P6SM FEW220 FM250700 01006KT P6SM FEW220 FM251100 19006KT P6SM SKC FM251700 04006KT P6SM SKC
KBJC 
12nm NW 
241740Z 2418/2518 VRB03KT P6SM SKC FM241900 07007KT P6SM SKC FM250500 35005KT P6SM SKC
KDEN 
16nm E 
242032Z 2421/2524 01009KT P6SM FEW100 FEW220 FM242230 04010KT P6SM FEW100 FEW220 FM250000 09006KT P6SM FEW220 FM250600 01006KT P6SM FEW220 FM251000 20006KT P6SM SKC FM251700 02007KT P6SM SKC FM252000 07007KT P6SM FEW120
NOTAMs
Click for the latest NOTAMs
NOTAMs are issued by the DoD/FAA and will open in a separate window not controlled by AirNav.

 

 
 

Would you like to see your business listed on this page?

 If your business provides an interesting product or service to pilots, flight crews, aircraft, or users of the St Lukes Hospital Heliport, you should consider listing it here.  To start the listing process, click on the button below
 
Add a business
 

Other Pages about St Lukes Hospital Heliport

Update a link
 
Copyright © AirNav, LLC. All rights reserved. Privacy Policy  Contact